createdAt,value
2022-11-29T00:01:34.396Z,6.70
2022-11-29T00:04:02.317Z,6.70
2022-11-29T00:06:33.203Z,6.70
2022-11-29T00:09:07.674Z,6.60
2022-11-29T00:11:56.311Z,6.70
2022-11-29T00:14:25.353Z,6.70
2022-11-29T00:16:55.512Z,6.70
2022-11-29T00:19:23.011Z,6.70
2022-11-29T00:21:50.119Z,6.60
2022-11-29T00:24:17.721Z,6.60
2022-11-29T00:26:44.896Z,6.60
2022-11-29T00:29:13.126Z,6.70
2022-11-29T00:31:40.897Z,6.70
2022-11-29T00:34:10.478Z,6.70
2022-11-29T00:36:37.937Z,6.60
2022-11-29T00:39:06.120Z,6.70
2022-11-29T00:41:33.884Z,6.70
2022-11-29T00:44:01.076Z,6.70
2022-11-29T00:46:28.145Z,6.70
2022-11-29T00:48:55.385Z,6.70
2022-11-29T00:51:22.461Z,6.70
2022-11-29T00:53:49.569Z,6.70
2022-11-29T00:56:16.702Z,6.70
2022-11-29T00:58:43.897Z,6.70
2022-11-29T01:01:11.810Z,6.70
2022-11-29T01:03:39.160Z,6.70
2022-11-29T01:06:15.877Z,6.70
2022-11-29T01:08:45.694Z,6.70
2022-11-29T01:11:25.666Z,6.70
2022-11-29T01:13:59.108Z,6.70
2022-11-29T01:16:27.536Z,6.70
2022-11-29T01:18:54.629Z,6.70
2022-11-29T01:21:24.409Z,6.70
2022-11-29T01:23:53.558Z,6.70
2022-11-29T01:26:27.782Z,6.70
2022-11-29T01:28:57.135Z,6.70
2022-11-29T01:31:33.736Z,6.70
2022-11-29T01:34:04.221Z,6.70
2022-11-29T01:36:32.005Z,6.70
2022-11-29T01:39:01.118Z,6.70
2022-11-29T01:41:32.165Z,6.70
2022-11-29T01:44:26.363Z,6.70
2022-11-29T01:46:54.809Z,6.70
2022-11-29T01:49:32.040Z,6.70
2022-11-29T01:52:07.996Z,6.70
2022-11-29T01:54:42.051Z,6.70
2022-11-29T01:57:10.386Z,6.70
2022-11-29T01:59:45.869Z,6.80
2022-11-29T02:02:34.394Z,6.80
2022-11-29T02:05:04.205Z,6.70
2022-11-29T02:07:31.896Z,6.70
2022-11-29T02:09:59.214Z,6.70
2022-11-29T02:13:00.058Z,6.70
2022-11-29T02:15:41.779Z,6.60
2022-11-29T02:18:21.628Z,6.80
2022-11-29T02:21:22.363Z,6.80
2022-11-29T02:24:23.057Z,6.80
2022-11-29T02:27:23.634Z,6.80
2022-11-29T02:30:15.692Z,6.80
2022-11-29T02:33:08.685Z,6.70
2022-11-29T02:36:04.679Z,6.70
2022-11-29T02:38:58.881Z,6.70
2022-11-29T02:41:58.515Z,6.70
2022-11-29T02:44:40.429Z,6.80
2022-11-29T02:47:35.754Z,6.70
2022-11-29T02:50:42.214Z,6.70
2022-11-29T02:53:49.639Z,6.70
2022-11-29T02:56:32.943Z,6.70
2022-11-29T02:59:56.655Z,6.70
2022-11-29T03:02:51.107Z,6.70
2022-11-29T03:06:04.369Z,6.70
2022-11-29T03:09:12.418Z,6.80
2022-11-29T03:12:16.718Z,6.80
2022-11-29T03:15:16.186Z,6.70
2022-11-29T03:18:16.967Z,6.70
2022-11-29T03:21:38.486Z,6.70
2022-11-29T03:24:25.229Z,6.70
2022-11-29T03:27:02.208Z,6.80
2022-11-29T03:30:00.687Z,6.70
2022-11-29T03:32:43.701Z,6.70
2022-11-29T03:35:40.797Z,6.70
2022-11-29T03:38:41.413Z,6.80
2022-11-29T03:41:44.291Z,6.80
2022-11-29T03:44:27.404Z,6.80
2022-11-29T03:47:23.339Z,6.80
2022-11-29T03:49:59.314Z,6.80
2022-11-29T03:52:36.095Z,6.80
2022-11-29T03:55:09.192Z,6.80
2022-11-29T03:58:03.483Z,6.80
2022-11-29T04:00:56.194Z,6.80
2022-11-29T04:03:51.004Z,6.80
2022-11-29T04:06:40.873Z,6.80
2022-11-29T04:09:36.747Z,6.80
2022-11-29T04:12:22.955Z,6.80
2022-11-29T04:15:14.132Z,6.80
2022-11-29T04:18:13.212Z,6.80
2022-11-29T04:21:31.985Z,6.80
2022-11-29T04:24:29.449Z,6.80
2022-11-29T04:27:09.753Z,6.80
2022-11-29T04:29:53.476Z,6.80
2022-11-29T04:32:48.201Z,6.80
2022-11-29T04:35:21.043Z,6.80
2022-11-29T04:38:15.145Z,6.80
2022-11-29T04:41:34.555Z,6.80
2022-11-29T04:44:22.361Z,6.80
2022-11-29T04:47:12.811Z,6.80
2022-11-29T04:50:26.196Z,6.80
2022-11-29T04:53:24.738Z,6.70
2022-11-29T04:56:31.715Z,6.70
2022-11-29T04:59:47.769Z,6.70
2022-11-29T05:02:37.261Z,6.70
2022-11-29T05:05:25.207Z,6.70
2022-11-29T05:08:16.580Z,6.70
2022-11-29T05:11:26.474Z,6.70
2022-11-29T05:14:08.231Z,6.70
2022-11-29T05:16:48.255Z,6.70
2022-11-29T05:19:47.905Z,6.70
2022-11-29T05:22:40.769Z,6.70
2022-11-29T05:25:54.809Z,6.70
2022-11-29T05:28:32.823Z,6.70
2022-11-29T05:31:14.499Z,6.70
2022-11-29T05:34:22.038Z,6.70
2022-11-29T05:37:07.477Z,6.80
2022-11-29T05:39:42.281Z,6.70
2022-11-29T05:42:47.548Z,6.80
2022-11-29T05:45:25.944Z,6.80
2022-11-29T05:48:14.473Z,6.80
2022-11-29T05:51:06.284Z,6.80
2022-11-29T05:53:56.748Z,6.80
2022-11-29T05:57:03.127Z,6.80
2022-11-29T05:59:34.757Z,6.80
2022-11-29T06:02:46.828Z,6.80
2022-11-29T06:05:47.681Z,6.80
2022-11-29T06:08:52.008Z,6.80
2022-11-29T06:11:34.281Z,6.80
2022-11-29T06:14:45.507Z,6.80
2022-11-29T06:18:02.034Z,6.80
2022-11-29T06:21:08.048Z,6.80
2022-11-29T06:23:48.497Z,6.80
2022-11-29T06:26:24.233Z,6.80
2022-11-29T06:29:12.886Z,6.80
2022-11-29T06:31:48.782Z,6.80
2022-11-29T06:34:47.381Z,6.80
2022-11-29T06:37:34.833Z,6.80
2022-11-29T06:40:02.276Z,6.80
2022-11-29T06:42:29.321Z,6.80
2022-11-29T06:44:56.693Z,6.80
2022-11-29T06:47:31.832Z,6.80
2022-11-29T06:50:34.196Z,6.70
2022-11-29T06:53:43.022Z,6.70
2022-11-29T06:57:10.470Z,6.70
2022-11-29T06:59:59.718Z,6.70
2022-11-29T07:03:13.274Z,6.70
2022-11-29T07:05:41.263Z,6.70
2022-11-29T07:08:24.326Z,6.70
2022-11-29T07:10:55.659Z,6.70
2022-11-29T07:13:23.902Z,6.70
2022-11-29T07:16:27.050Z,6.70
2022-11-29T07:19:46.088Z,6.80
2022-11-29T07:22:31.176Z,6.80
2022-11-29T07:25:10.971Z,6.80
2022-11-29T07:28:06.391Z,6.80
2022-11-29T07:30:53.761Z,6.90
2022-11-29T07:33:37.098Z,6.90
2022-11-29T07:36:55.503Z,6.90
2022-11-29T07:40:01.110Z,6.90
2022-11-29T07:43:02.328Z,6.90
2022-11-29T07:45:32.575Z,6.90
2022-11-29T07:48:00.113Z,6.90
2022-11-29T07:50:28.166Z,6.90
2022-11-29T07:52:56.499Z,6.90
2022-11-29T07:55:26.664Z,6.90
2022-11-29T07:57:53.961Z,6.90
2022-11-29T08:00:22.381Z,6.90
2022-11-29T08:02:50.552Z,7.00
2022-11-29T08:05:18.333Z,7.00
2022-11-29T08:07:46.606Z,7.00
2022-11-29T08:10:16.176Z,7.00
2022-11-29T08:12:50.282Z,7.00
2022-11-29T08:15:25.402Z,7.10
2022-11-29T08:17:54.196Z,7.10
2022-11-29T08:20:21.471Z,7.20
2022-11-29T08:22:59.382Z,7.20
2022-11-29T08:25:28.397Z,7.20
2022-11-29T08:27:56.297Z,7.30
2022-11-29T08:30:25.149Z,7.20
2022-11-29T08:32:52.916Z,7.20
2022-11-29T08:35:23.348Z,7.20
2022-11-29T08:37:50.856Z,7.20
2022-11-29T08:40:18.401Z,7.10
2022-11-29T08:42:45.512Z,7.20
2022-11-29T08:45:13.252Z,7.20
2022-11-29T08:47:42.278Z,7.10
2022-11-29T08:50:15.042Z,7.20
2022-11-29T08:53:04.609Z,7.20
2022-11-29T08:55:42.720Z,7.30
2022-11-29T08:58:14.886Z,7.30
2022-11-29T09:00:46.997Z,7.40
2022-11-29T09:03:32.494Z,7.40
2022-11-29T09:06:10.482Z,7.50
2022-11-29T09:08:39.855Z,7.50
2022-11-29T09:11:17.955Z,7.50
2022-11-29T09:13:48.974Z,7.50
2022-11-29T09:16:20.025Z,7.40
2022-11-29T09:18:51.893Z,7.40
2022-11-29T09:21:19.526Z,7.40
2022-11-29T09:23:46.985Z,7.40
2022-11-29T09:26:20.205Z,7.40
2022-11-29T09:28:47.455Z,7.40
2022-11-29T09:31:16.218Z,7.40
2022-11-29T09:33:43.429Z,7.50
2022-11-29T09:36:12.604Z,7.50
2022-11-29T09:38:40.045Z,7.60
2022-11-29T09:41:48.779Z,7.60
2022-11-29T09:44:33.930Z,7.70
2022-11-29T09:47:27.972Z,7.70
2022-11-29T09:50:30.065Z,7.70
2022-11-29T09:53:26.645Z,7.80
2022-11-29T09:56:06.376Z,7.80
2022-11-29T09:59:02.205Z,7.80
2022-11-29T10:01:38.324Z,7.80
2022-11-29T10:04:18.641Z,7.80
2022-11-29T10:07:13.833Z,7.80
2022-11-29T10:10:21.250Z,7.80
2022-11-29T10:13:05.690Z,7.90
2022-11-29T10:15:40.197Z,7.90
2022-11-29T10:18:24.663Z,8.00
2022-11-29T10:21:00.329Z,8.00
2022-11-29T10:23:57.221Z,8.10
2022-11-29T10:26:28.166Z,8.00
2022-11-29T10:28:58.069Z,8.00
2022-11-29T10:31:32.966Z,8.10
2022-11-29T10:34:10.163Z,8.00
2022-11-29T10:37:04.575Z,8.00
2022-11-29T10:39:40.302Z,8.00
2022-11-29T10:42:36.126Z,8.10
2022-11-29T10:45:06.829Z,8.10
2022-11-29T10:47:33.879Z,8.10
2022-11-29T10:50:01.038Z,8.20
2022-11-29T10:52:28.276Z,8.20
2022-11-29T10:54:58.770Z,8.20
2022-11-29T10:57:25.866Z,8.30
2022-11-29T11:00:11.565Z,8.30
2022-11-29T11:02:38.796Z,8.30
2022-11-29T11:05:18.694Z,8.40
2022-11-29T11:07:47.578Z,8.50
2022-11-29T11:10:30.863Z,8.50
2022-11-29T11:13:05.585Z,8.60
2022-11-29T11:15:33.257Z,8.70
2022-11-29T11:18:21.149Z,8.70
2022-11-29T11:20:59.737Z,8.70
2022-11-29T11:23:42.399Z,8.70
2022-11-29T11:26:13.414Z,8.70
2022-11-29T11:29:00.725Z,8.70
2022-11-29T11:31:38.107Z,8.70
2022-11-29T11:34:36.870Z,8.70
2022-11-29T11:37:16.493Z,8.60
2022-11-29T11:39:46.587Z,8.60
2022-11-29T11:42:38.726Z,8.50
2022-11-29T11:45:11.648Z,8.50
2022-11-29T11:48:01.444Z,8.60
2022-11-29T11:50:52.446Z,8.60
2022-11-29T11:53:35.816Z,8.60
2022-11-29T11:56:12.773Z,8.60
2022-11-29T11:58:53.028Z,8.60
2022-11-29T12:01:31.313Z,8.50
2022-11-29T12:04:24.918Z,8.50
2022-11-29T12:06:58.700Z,8.60
2022-11-29T12:09:32.976Z,8.50
2022-11-29T12:12:28.232Z,8.50
2022-11-29T12:14:58.085Z,8.50
2022-11-29T12:17:38.610Z,8.50
2022-11-29T12:20:17.458Z,8.40
2022-11-29T12:22:53.910Z,8.40
2022-11-29T12:25:33.137Z,8.30
2022-11-29T12:28:00.545Z,8.20
2022-11-29T12:30:27.711Z,8.10
2022-11-29T12:33:21.761Z,8.10
2022-11-29T12:35:55.157Z,8.10
2022-11-29T12:38:43.241Z,8.10
2022-11-29T12:41:57.343Z,7.90
2022-11-29T12:45:15.826Z,7.90
2022-11-29T12:47:52.271Z,7.80
2022-11-29T12:50:49.658Z,7.80
2022-11-29T12:53:35.678Z,7.80
2022-11-29T12:56:28.088Z,7.80
2022-11-29T12:59:29.654Z,7.80
2022-11-29T13:02:26.328Z,7.80
2022-11-29T13:05:56.320Z,7.80
2022-11-29T13:08:54.285Z,7.90
2022-11-29T13:11:33.826Z,7.90
2022-11-29T13:14:34.753Z,7.90
2022-11-29T13:17:04.398Z,7.90
2022-11-29T13:19:47.982Z,8.00
2022-11-29T13:22:45.476Z,8.00
2022-11-29T13:25:37.821Z,8.00
2022-11-29T13:28:25.847Z,8.10
2022-11-29T13:31:00.912Z,8.10
2022-11-29T13:33:33.233Z,8.10
2022-11-29T13:36:30.713Z,8.20
2022-11-29T13:39:55.935Z,8.30
2022-11-29T13:42:40.213Z,8.40
2022-11-29T13:45:18.711Z,8.50
2022-11-29T13:48:00.910Z,8.50
2022-11-29T13:50:44.932Z,8.50
2022-11-29T13:53:26.233Z,8.50
2022-11-29T13:56:02.557Z,8.60
2022-11-29T13:58:30.696Z,8.60
2022-11-29T14:01:06.344Z,8.50
2022-11-29T14:03:37.296Z,8.50
2022-11-29T14:06:24.299Z,8.50
2022-11-29T14:09:22.153Z,8.60
2022-11-29T14:12:18.604Z,8.50
2022-11-29T14:14:57.171Z,8.40
2022-11-29T14:17:55.167Z,8.40
2022-11-29T14:20:25.292Z,8.40
2022-11-29T14:23:04.635Z,8.30
2022-11-29T14:26:02.964Z,8.20
2022-11-29T14:28:37.245Z,8.20
2022-11-29T14:31:06.514Z,8.20
2022-11-29T14:34:07.085Z,8.20
2022-11-29T14:37:06.055Z,8.20
2022-11-29T14:39:49.469Z,8.10
2022-11-29T14:42:23.608Z,8.10
2022-11-29T14:45:06.318Z,8.10
2022-11-29T14:47:37.198Z,8.00
2022-11-29T14:50:08.973Z,8.00
2022-11-29T14:52:51.847Z,8.00
2022-11-29T14:55:24.856Z,8.00
2022-11-29T14:58:06.352Z,7.90
2022-11-29T15:00:33.374Z,7.90
2022-11-29T15:03:24.788Z,7.90
2022-11-29T15:06:07.640Z,7.90
2022-11-29T15:08:40.952Z,7.80
2022-11-29T15:11:30.912Z,7.80
2022-11-29T15:14:24.085Z,7.80
2022-11-29T15:17:02.855Z,7.80
2022-11-29T15:19:45.116Z,7.80
2022-11-29T15:22:20.188Z,7.80
2022-11-29T15:24:59.721Z,7.80
2022-11-29T15:27:27.141Z,7.70
2022-11-29T15:29:54.406Z,7.80
2022-11-29T15:32:32.746Z,7.70
2022-11-29T15:35:01.204Z,7.70
2022-11-29T15:37:49.929Z,7.60
2022-11-29T15:40:35.141Z,7.60
2022-11-29T15:43:23.533Z,7.60
2022-11-29T15:45:56.937Z,7.60
2022-11-29T15:48:29.732Z,7.50
2022-11-29T15:51:34.354Z,7.50
2022-11-29T15:54:26.336Z,7.40
2022-11-29T15:57:18.046Z,7.50
2022-11-29T15:59:52.362Z,7.40
2022-11-29T16:02:31.137Z,7.40
2022-11-29T16:05:09.567Z,7.40
2022-11-29T16:09:43.810Z,7.40
2022-11-29T16:12:17.508Z,7.30
2022-11-29T16:14:56.801Z,7.30
2022-11-29T16:17:34.146Z,7.30
2022-11-29T16:20:16.743Z,7.30
2022-11-29T16:22:43.831Z,7.30
2022-11-29T16:25:19.501Z,7.30
2022-11-29T16:27:47.653Z,7.20
2022-11-29T16:30:24.483Z,7.20
2022-11-29T16:33:03.551Z,7.20
2022-11-29T16:35:36.191Z,7.20
2022-11-29T16:38:06.349Z,7.20
2022-11-29T16:40:35.578Z,7.20
2022-11-29T16:43:23.631Z,7.20
2022-11-29T16:46:37.614Z,7.10
2022-11-29T16:49:34.085Z,7.10
2022-11-29T16:52:02.648Z,7.10
2022-11-29T16:54:34.358Z,7.10
2022-11-29T16:57:06.909Z,7.10
2022-11-29T16:59:35.432Z,7.10
2022-11-29T17:02:03.018Z,7.10
2022-11-29T17:04:30.134Z,7.00
2022-11-29T17:06:57.851Z,7.00
2022-11-29T17:09:32.568Z,7.00
2022-11-29T17:12:00.576Z,7.00
2022-11-29T17:14:31.987Z,7.00
2022-11-29T17:17:02.044Z,7.00
2022-11-29T17:19:30.038Z,6.90
2022-11-29T17:21:57.408Z,7.00
2022-11-29T17:24:25.194Z,6.90
2022-11-29T17:26:52.268Z,6.90
2022-11-29T17:29:19.713Z,6.90
2022-11-29T17:31:47.404Z,6.80
2022-11-29T17:34:14.570Z,6.90
2022-11-29T17:36:42.073Z,6.90
2022-11-29T17:39:09.474Z,6.90
2022-11-29T17:41:36.596Z,6.90
2022-11-29T17:44:04.140Z,6.90
2022-11-29T17:46:34.118Z,6.80
2022-11-29T17:49:04.967Z,6.80
2022-11-29T17:54:24.281Z,6.90
2022-11-29T17:56:51.966Z,6.90
2022-11-29T17:59:19.271Z,6.90
2022-11-29T18:01:49.209Z,6.90
2022-11-29T18:04:16.445Z,6.90
2022-11-29T18:06:43.917Z,6.80
2022-11-29T18:09:11.623Z,6.80
2022-11-29T18:11:48.063Z,6.80
2022-11-29T18:14:19.877Z,6.80
2022-11-29T18:16:47.022Z,6.70
2022-11-29T18:19:18.077Z,6.60
2022-11-29T18:21:45.411Z,6.60
2022-11-29T18:24:12.493Z,6.50
2022-11-29T18:26:41.319Z,6.50
2022-11-29T18:29:09.310Z,6.50
2022-11-29T18:31:40.175Z,6.40
2022-11-29T18:34:10.000Z,6.40
2022-11-29T18:36:55.157Z,6.40
2022-11-29T18:39:23.685Z,6.40
2022-11-29T18:41:51.211Z,6.40
2022-11-29T18:44:21.728Z,6.30
2022-11-29T18:46:49.043Z,6.30
2022-11-29T18:49:18.117Z,6.30
2022-11-29T18:51:46.396Z,6.20
2022-11-29T18:54:16.076Z,6.20
2022-11-29T18:56:44.715Z,6.20
2022-11-29T18:59:16.860Z,6.10
2022-11-29T19:01:47.728Z,6.20
2022-11-29T19:04:20.797Z,6.10
2022-11-29T19:06:48.314Z,6.20
2022-11-29T19:09:20.990Z,6.20
2022-11-29T19:11:51.267Z,6.20
2022-11-29T19:14:19.250Z,6.10
2022-11-29T19:16:49.807Z,6.10
2022-11-29T19:19:18.772Z,6.10
2022-11-29T19:21:45.882Z,6.00
2022-11-29T19:24:15.205Z,6.00
2022-11-29T19:26:45.031Z,5.90
2022-11-29T19:29:13.880Z,5.90
2022-11-29T19:31:41.803Z,5.90
2022-11-29T19:34:09.022Z,5.80
2022-11-29T19:36:42.747Z,5.80
2022-11-29T19:39:13.675Z,5.70
2022-11-29T19:41:44.218Z,5.70
2022-11-29T19:44:11.865Z,5.70
2022-11-29T19:46:42.691Z,5.60
2022-11-29T19:49:10.972Z,5.50
2022-11-29T19:51:38.628Z,5.50
2022-11-29T19:54:07.984Z,5.50
2022-11-29T19:56:36.666Z,5.40
2022-11-29T19:59:07.626Z,5.40
2022-11-29T20:01:40.897Z,5.30
2022-11-29T20:04:10.592Z,5.30
2022-11-29T20:06:38.117Z,5.20
2022-11-29T20:09:06.497Z,5.20
2022-11-29T20:11:33.584Z,5.20
2022-11-29T20:14:03.212Z,5.10
2022-11-29T20:16:31.801Z,5.00
2022-11-29T20:19:01.857Z,5.00
2022-11-29T20:21:33.856Z,4.90
2022-11-29T20:24:05.496Z,4.90
2022-11-29T20:26:36.241Z,4.90
2022-11-29T20:29:05.722Z,4.80
2022-11-29T20:31:35.887Z,4.70
2022-11-29T20:34:03.990Z,4.70
2022-11-29T20:36:59.285Z,4.60
2022-11-29T20:39:53.440Z,4.60
2022-11-29T20:42:31.678Z,4.60
2022-11-29T20:45:01.254Z,4.60
2022-11-29T20:47:50.098Z,4.50
2022-11-29T20:50:24.190Z,4.50
2022-11-29T20:53:15.337Z,4.50
2022-11-29T20:55:47.963Z,4.50
2022-11-29T20:58:16.461Z,4.50
2022-11-29T21:00:43.517Z,4.40
2022-11-29T21:03:15.441Z,4.50
2022-11-29T21:05:42.791Z,4.50
2022-11-29T21:08:10.060Z,4.60
2022-11-29T21:10:37.134Z,4.60
2022-11-29T21:13:06.406Z,4.60
2022-11-29T21:15:33.983Z,4.70
2022-11-29T21:18:01.402Z,4.70
2022-11-29T21:20:28.664Z,4.80
2022-11-29T21:23:33.811Z,4.80
2022-11-29T21:26:15.751Z,4.90
2022-11-29T21:28:54.743Z,4.90
2022-11-29T21:31:22.230Z,4.90
2022-11-29T21:33:49.735Z,4.90
2022-11-29T21:36:18.187Z,4.90
2022-11-29T21:38:50.895Z,5.00
2022-11-29T21:41:21.106Z,5.00
2022-11-29T21:44:05.969Z,5.00
2022-11-29T21:46:34.686Z,5.00
2022-11-29T21:49:01.783Z,5.10
2022-11-29T21:51:29.016Z,5.20
2022-11-29T21:53:56.030Z,5.20
2022-11-29T21:56:23.732Z,5.30
2022-11-29T21:58:50.723Z,5.40
2022-11-29T22:01:20.300Z,5.40
2022-11-29T22:03:47.958Z,5.40
2022-11-29T22:06:20.383Z,5.40
2022-11-29T22:08:50.401Z,5.50
2022-11-29T22:11:30.921Z,5.50
2022-11-29T22:14:14.863Z,5.60
2022-11-29T22:16:46.624Z,5.60
2022-11-29T22:19:20.752Z,5.60
2022-11-29T22:21:51.997Z,5.60
2022-11-29T22:24:22.130Z,5.50
2022-11-29T22:26:52.084Z,5.50
2022-11-29T22:29:19.988Z,5.50
2022-11-29T22:31:51.265Z,5.50
2022-11-29T22:34:18.480Z,5.50
2022-11-29T22:36:46.086Z,5.50
2022-11-29T22:39:15.813Z,5.60
2022-11-29T22:41:43.145Z,5.60
2022-11-29T22:44:10.230Z,5.60
2022-11-29T22:46:40.355Z,5.60
2022-11-29T22:49:08.060Z,5.60
2022-11-29T22:51:37.921Z,5.70
2022-11-29T22:54:11.575Z,5.70
2022-11-29T22:56:41.537Z,5.70
2022-11-29T22:59:09.697Z,5.80
2022-11-29T23:01:39.579Z,5.80
2022-11-29T23:04:08.549Z,5.80
2022-11-29T23:06:44.965Z,5.90
2022-11-29T23:09:17.123Z,5.90
2022-11-29T23:11:45.979Z,5.80
2022-11-29T23:14:13.646Z,5.90
2022-11-29T23:16:43.156Z,5.80
2022-11-29T23:19:10.517Z,5.80
2022-11-29T23:21:40.233Z,5.70
2022-11-29T23:24:08.035Z,5.70
2022-11-29T23:26:41.257Z,5.70
2022-11-29T23:29:12.029Z,5.70
2022-11-29T23:31:40.065Z,5.70
2022-11-29T23:34:08.552Z,5.70
2022-11-29T23:36:36.005Z,5.70
2022-11-29T23:39:03.059Z,5.80
2022-11-29T23:41:30.329Z,5.80
2022-11-29T23:43:59.708Z,5.80
2022-11-29T23:46:26.834Z,5.80
2022-11-29T23:48:54.012Z,5.70
2022-11-29T23:51:21.042Z,5.70
2022-11-29T23:53:55.201Z,5.70
2022-11-29T23:56:23.726Z,5.70
2022-11-29T23:58:50.795Z,5.70
